createdAt,value
2022-12-18T00:01:32.386Z,49.57
2022-12-18T00:04:00.579Z,48.37
2022-12-18T00:06:31.696Z,49.17
2022-12-18T00:09:00.637Z,47.33
2022-12-18T00:11:30.912Z,48.67
2022-12-18T00:14:00.925Z,49.27
2022-12-18T00:16:31.116Z,48.10
2022-12-18T00:19:01.985Z,49.50
2022-12-18T00:21:32.656Z,49.50
2022-12-18T00:24:01.909Z,49.03
2022-12-18T00:26:32.104Z,48.83
2022-12-18T00:29:05.886Z,45.93
2022-12-18T00:31:34.784Z,48.40
2022-12-18T00:34:03.553Z,47.30
2022-12-18T00:36:34.331Z,48.20
2022-12-18T00:39:04.553Z,47.97
2022-12-18T00:41:50.204Z,46.00
2022-12-18T00:44:20.062Z,42.43
2022-12-18T00:46:49.666Z,41.67
2022-12-18T00:49:19.388Z,37.77
2022-12-18T00:51:49.777Z,39.17
2022-12-18T00:54:18.103Z,36.57
2022-12-18T00:56:49.333Z,29.73
2022-12-18T00:59:18.472Z,30.77
2022-12-18T01:01:46.978Z,30.27
2022-12-18T01:04:15.954Z,28.17
2022-12-18T01:06:47.062Z,26.67
2022-12-18T01:09:16.794Z,27.63
2022-12-18T01:11:44.795Z,26.90
2022-12-18T01:14:12.900Z,27.27
2022-12-18T01:16:41.030Z,27.27
2022-12-18T01:19:09.108Z,27.57
2022-12-18T01:21:37.138Z,26.80
2022-12-18T01:24:06.865Z,27.80
2022-12-18T01:26:36.701Z,28.33
2022-12-18T01:29:04.722Z,26.30
2022-12-18T01:31:34.679Z,26.40
2022-12-18T01:34:05.233Z,26.27
2022-12-18T01:36:34.811Z,27.23
2022-12-18T01:39:05.265Z,26.30
2022-12-18T01:41:49.353Z,26.70
2022-12-18T01:44:57.061Z,26.80
2022-12-18T01:47:29.607Z,27.67
2022-12-18T01:49:59.691Z,27.37
2022-12-18T01:52:30.771Z,27.07
2022-12-18T01:54:59.348Z,27.13
2022-12-18T01:57:28.383Z,27.10
2022-12-18T02:00:01.890Z,26.23
2022-12-18T02:02:42.340Z,27.07
2022-12-18T02:05:12.341Z,27.43
2022-12-18T02:07:47.760Z,27.93
2022-12-18T02:10:22.013Z,25.63
2022-12-18T02:12:57.536Z,27.30
2022-12-18T02:15:33.893Z,26.00
2022-12-18T02:18:08.803Z,25.47
2022-12-18T02:20:41.446Z,24.77
2022-12-18T02:23:19.064Z,25.10
2022-12-18T02:26:08.140Z,25.10
2022-12-18T02:28:39.635Z,25.37
2022-12-18T02:31:13.883Z,23.10
2022-12-18T02:33:43.706Z,25.13
2022-12-18T02:36:13.051Z,24.77
2022-12-18T02:38:41.777Z,25.37
2022-12-18T02:41:16.797Z,25.70
2022-12-18T02:43:50.682Z,25.23
2022-12-18T02:46:31.956Z,25.60
2022-12-18T02:49:11.599Z,25.27
2022-12-18T02:51:50.067Z,25.93
2022-12-18T02:54:29.633Z,25.30
2022-12-18T02:57:07.971Z,25.53
2022-12-18T02:59:44.216Z,28.63
2022-12-18T03:02:23.296Z,28.87
2022-12-18T03:05:00.676Z,29.60
2022-12-18T03:07:36.943Z,30.33
2022-12-18T03:10:14.909Z,29.63
2022-12-18T03:12:47.152Z,29.43
2022-12-18T03:15:20.240Z,31.67
2022-12-18T03:17:57.278Z,31.73
2022-12-18T03:20:29.579Z,34.33
2022-12-18T03:23:02.376Z,37.27
2022-12-18T03:25:32.686Z,37.87
2022-12-18T03:28:05.526Z,38.20
2022-12-18T03:30:35.876Z,39.00
2022-12-18T03:33:09.951Z,40.47
2022-12-18T03:35:43.780Z,40.43
2022-12-18T03:38:13.968Z,42.37
2022-12-18T03:40:59.098Z,41.83
2022-12-18T03:43:41.227Z,42.43
2022-12-18T03:46:16.161Z,40.83
2022-12-18T03:48:50.745Z,40.97
2022-12-18T03:51:28.784Z,41.40
2022-12-18T03:54:00.936Z,42.43
2022-12-18T03:56:37.906Z,42.47
2022-12-18T03:59:11.414Z,43.33
2022-12-18T04:01:45.197Z,42.20
2022-12-18T04:04:16.613Z,42.57
2022-12-18T04:06:47.919Z,43.33
2022-12-18T04:09:16.710Z,42.87
2022-12-18T04:11:48.792Z,41.60
2022-12-18T04:14:19.488Z,43.33
2022-12-18T04:16:51.392Z,43.67
2022-12-18T04:19:23.215Z,43.10
2022-12-18T04:21:52.879Z,42.87
2022-12-18T04:24:20.970Z,43.83
2022-12-18T04:27:01.602Z,44.70
2022-12-18T04:29:35.866Z,42.90
2022-12-18T04:32:03.956Z,45.60
2022-12-18T04:34:33.737Z,46.10
2022-12-18T04:37:01.919Z,44.83
2022-12-18T04:39:30.677Z,44.10
2022-12-18T04:42:03.495Z,46.07
2022-12-18T04:44:31.514Z,42.83
2022-12-18T04:47:00.864Z,45.37
2022-12-18T04:49:28.837Z,46.70
2022-12-18T04:51:56.991Z,44.97
2022-12-18T04:54:24.978Z,44.80
2022-12-18T04:56:53.034Z,46.00
2022-12-18T04:59:21.677Z,47.03
2022-12-18T05:01:49.777Z,46.47
2022-12-18T05:04:19.285Z,46.30
2022-12-18T05:06:48.147Z,46.07
2022-12-18T05:09:16.769Z,44.50
2022-12-18T05:11:45.203Z,45.87
2022-12-18T05:14:14.467Z,48.30
2022-12-18T05:16:42.740Z,46.30
2022-12-18T05:19:10.879Z,47.37
2022-12-18T05:21:40.539Z,46.03
2022-12-18T05:24:08.927Z,46.87
2022-12-18T05:26:36.925Z,47.23
2022-12-18T05:29:05.023Z,46.70
2022-12-18T05:31:38.928Z,46.20
2022-12-18T05:34:08.287Z,46.30
2022-12-18T05:36:36.433Z,46.77
2022-12-18T05:39:05.934Z,45.20
2022-12-18T05:41:34.160Z,46.93
2022-12-18T05:44:02.385Z,46.60
2022-12-18T05:46:30.609Z,48.23
2022-12-18T05:49:01.564Z,48.33
2022-12-18T05:51:30.035Z,46.70
2022-12-18T05:53:58.020Z,46.43
2022-12-18T05:56:27.444Z,46.97
2022-12-18T05:58:56.354Z,48.23
2022-12-18T06:01:27.936Z,48.87
2022-12-18T06:03:56.892Z,49.10
2022-12-18T06:06:27.021Z,48.53
2022-12-18T06:08:56.316Z,46.83
2022-12-18T06:11:26.331Z,48.03
2022-12-18T06:13:58.932Z,47.53
2022-12-18T06:16:28.024Z,48.73
2022-12-18T06:18:58.532Z,47.47
2022-12-18T06:21:26.872Z,48.00
2022-12-18T06:23:55.051Z,48.37
2022-12-18T06:26:27.765Z,49.63
2022-12-18T06:28:58.001Z,48.60
2022-12-18T06:31:27.624Z,49.23
2022-12-18T06:33:55.822Z,48.40
2022-12-18T06:36:23.891Z,47.87
2022-12-18T06:38:53.391Z,48.43
2022-12-18T06:41:23.173Z,48.00
2022-12-18T06:43:53.581Z,44.73
2022-12-18T06:46:25.044Z,46.50
2022-12-18T06:48:53.007Z,46.73
2022-12-18T06:51:21.978Z,47.23
2022-12-18T06:53:50.023Z,48.37
2022-12-18T06:56:18.248Z,44.73
2022-12-18T06:58:46.612Z,47.73
2022-12-18T07:01:15.696Z,47.80
2022-12-18T07:03:45.674Z,47.67
2022-12-18T07:06:19.101Z,46.27
2022-12-18T07:08:47.586Z,47.57
2022-12-18T07:11:16.160Z,48.40
2022-12-18T07:13:44.708Z,47.40
2022-12-18T07:16:22.380Z,46.17
2022-12-18T07:18:54.787Z,46.63
2022-12-18T07:21:23.803Z,46.60
2022-12-18T07:23:51.810Z,46.07
2022-12-18T07:26:21.383Z,46.77
2022-12-18T07:28:50.648Z,47.97
2022-12-18T07:31:21.514Z,47.60
2022-12-18T07:33:50.461Z,46.87
2022-12-18T07:36:20.424Z,48.00
2022-12-18T07:38:49.948Z,47.57
2022-12-18T07:41:19.674Z,46.40
2022-12-18T07:43:48.445Z,47.07
2022-12-18T07:46:17.848Z,45.40
2022-12-18T07:48:50.052Z,47.47
2022-12-18T07:51:21.012Z,47.97
2022-12-18T07:53:52.286Z,47.83
2022-12-18T07:56:30.336Z,46.53
2022-12-18T07:58:59.569Z,47.13
2022-12-18T08:01:27.921Z,47.67
2022-12-18T08:03:56.097Z,48.30
2022-12-18T08:06:25.458Z,46.50
2022-12-18T08:08:54.760Z,45.03
2022-12-18T08:11:23.672Z,47.03
2022-12-18T08:13:51.861Z,46.23
2022-12-18T08:16:20.782Z,46.13
2022-12-18T08:18:49.469Z,45.97
2022-12-18T08:21:22.094Z,45.33
2022-12-18T08:23:52.412Z,46.20
2022-12-18T08:26:21.309Z,46.40
2022-12-18T08:28:50.825Z,44.27
2022-12-18T08:31:19.410Z,44.53
2022-12-18T08:33:49.970Z,46.67
2022-12-18T08:36:18.228Z,44.67
2022-12-18T08:38:46.269Z,46.40
2022-12-18T08:41:18.247Z,46.07
2022-12-18T08:44:04.174Z,44.43
2022-12-18T08:46:36.664Z,46.33
2022-12-18T08:49:05.374Z,43.23
2022-12-18T08:51:33.397Z,44.57
2022-12-18T08:54:01.358Z,43.17
2022-12-18T08:56:32.040Z,44.83
2022-12-18T08:59:00.198Z,44.47
2022-12-18T09:01:28.485Z,44.07
2022-12-18T09:03:56.593Z,44.17
2022-12-18T09:06:25.481Z,43.40
2022-12-18T09:08:53.543Z,43.43
2022-12-18T09:11:24.607Z,44.63
2022-12-18T09:13:54.980Z,44.87
2022-12-18T09:16:30.134Z,43.97
2022-12-18T09:19:01.340Z,42.83
2022-12-18T09:21:33.937Z,42.63
2022-12-18T09:24:08.026Z,42.90
2022-12-18T09:26:37.318Z,43.57
2022-12-18T09:29:08.177Z,42.43
2022-12-18T09:31:36.789Z,44.23
2022-12-18T09:34:04.869Z,42.40
2022-12-18T09:36:34.058Z,43.87
2022-12-18T09:39:07.564Z,43.40
2022-12-18T09:41:45.163Z,43.63
2022-12-18T09:44:22.199Z,42.93
2022-12-18T09:46:56.763Z,44.10
2022-12-18T09:49:28.303Z,43.47
2022-12-18T09:52:01.875Z,43.83
2022-12-18T09:54:38.070Z,45.23
2022-12-18T09:57:06.452Z,44.27
2022-12-18T09:59:38.477Z,43.83
2022-12-18T10:02:18.682Z,45.00
2022-12-18T10:04:55.782Z,42.93
2022-12-18T10:07:31.359Z,42.10
2022-12-18T10:10:07.243Z,43.03
2022-12-18T10:12:43.409Z,43.93
2022-12-18T10:15:21.927Z,44.70
2022-12-18T10:17:57.543Z,44.00
2022-12-18T10:20:34.968Z,44.50
2022-12-18T10:23:16.036Z,43.30
2022-12-18T10:25:57.692Z,43.27
2022-12-18T10:28:26.879Z,43.23
2022-12-18T10:30:56.262Z,44.47
2022-12-18T10:33:26.584Z,43.97
2022-12-18T10:35:56.333Z,44.90
2022-12-18T10:38:27.158Z,43.20
2022-12-18T10:40:57.576Z,46.57
2022-12-18T10:43:28.374Z,44.07
2022-12-18T10:46:04.621Z,44.43
2022-12-18T10:48:33.872Z,44.53
2022-12-18T10:51:10.804Z,44.37
2022-12-18T10:53:44.079Z,43.30
2022-12-18T10:56:13.051Z,43.63
2022-12-18T10:58:41.814Z,43.60
2022-12-18T11:01:13.964Z,43.73
2022-12-18T11:03:44.560Z,43.47
2022-12-18T11:06:15.395Z,44.10
2022-12-18T11:08:46.552Z,42.00
2022-12-18T11:11:22.523Z,45.13
2022-12-18T11:14:01.416Z,36.60
2022-12-18T11:16:32.998Z,36.67
2022-12-18T11:19:25.892Z,38.00
2022-12-18T11:21:54.127Z,36.40
2022-12-18T11:24:29.342Z,42.10
2022-12-18T11:26:59.792Z,27.67
2022-12-18T11:29:35.608Z,25.10
2022-12-18T11:32:30.394Z,25.40
2022-12-18T11:35:05.321Z,25.07
2022-12-18T11:37:35.016Z,25.90
2022-12-18T11:40:09.197Z,24.57
2022-12-18T11:42:43.672Z,24.40
2022-12-18T11:45:26.868Z,24.13
2022-12-18T11:48:01.425Z,24.20
2022-12-18T11:50:36.009Z,22.93
2022-12-18T11:53:06.357Z,23.63
2022-12-18T11:55:42.107Z,24.97
2022-12-18T11:58:22.561Z,29.23
2022-12-18T12:00:59.268Z,30.53
2022-12-18T12:03:49.894Z,31.30
2022-12-18T12:06:25.160Z,30.17
2022-12-18T12:09:05.021Z,29.50
2022-12-18T12:11:44.313Z,29.93
2022-12-18T12:14:24.823Z,30.17
2022-12-18T12:16:59.416Z,29.03
2022-12-18T12:19:38.848Z,27.03
2022-12-18T12:22:16.056Z,29.77
2022-12-18T12:24:58.468Z,29.30
2022-12-18T12:27:36.742Z,28.57
2022-12-18T12:30:10.380Z,29.23
2022-12-18T12:32:53.029Z,29.73
2022-12-18T12:35:31.894Z,29.57
2022-12-18T12:38:11.546Z,30.53
2022-12-18T12:40:55.187Z,29.47
2022-12-18T12:43:34.468Z,30.87
2022-12-18T12:46:07.852Z,29.40
2022-12-18T12:48:45.624Z,30.50
2022-12-18T12:51:21.029Z,30.47
2022-12-18T12:53:50.616Z,30.87
2022-12-18T12:56:22.889Z,31.60
2022-12-18T12:59:07.143Z,30.40
2022-12-18T13:01:43.267Z,29.80
2022-12-18T13:04:23.915Z,29.67
2022-12-18T13:07:03.657Z,30.37
2022-12-18T13:09:36.826Z,30.27
2022-12-18T13:12:34.916Z,29.70
2022-12-18T13:15:22.602Z,29.20
2022-12-18T13:17:50.986Z,29.30
2022-12-18T13:20:19.331Z,28.43
2022-12-18T13:22:51.345Z,27.23
2022-12-18T13:25:35.797Z,27.33
2022-12-18T13:28:07.264Z,33.93
2022-12-18T13:30:58.048Z,29.33
2022-12-18T13:34:02.223Z,28.87
2022-12-18T13:36:34.529Z,31.10
2022-12-18T13:39:29.945Z,31.43
2022-12-18T13:43:00.311Z,32.83
2022-12-18T13:45:43.299Z,31.37
2022-12-18T13:48:25.183Z,31.80
2022-12-18T13:51:01.753Z,31.60
2022-12-18T13:53:35.004Z,32.03
2022-12-18T13:56:05.805Z,32.07
2022-12-18T13:58:34.059Z,33.33
2022-12-18T14:01:04.177Z,33.93
2022-12-18T14:03:32.647Z,34.73
2022-12-18T14:06:08.573Z,34.40
2022-12-18T14:08:41.508Z,37.17
2022-12-18T14:11:21.321Z,35.50
2022-12-18T14:13:50.299Z,37.63
2022-12-18T14:16:19.817Z,38.77
2022-12-18T14:18:50.217Z,40.77
2022-12-18T14:21:22.058Z,41.10
2022-12-18T14:23:50.199Z,42.23
2022-12-18T14:26:30.380Z,44.90
2022-12-18T14:29:02.153Z,46.57
2022-12-18T14:31:32.639Z,46.43
2022-12-18T14:34:00.734Z,47.93
2022-12-18T14:36:30.552Z,47.20
2022-12-18T14:39:00.405Z,46.13
2022-12-18T14:41:29.995Z,44.37
2022-12-18T14:44:08.222Z,45.50
2022-12-18T14:46:39.631Z,45.70
2022-12-18T14:49:22.646Z,48.97
2022-12-18T14:51:53.119Z,46.77
2022-12-18T14:54:23.029Z,47.20
2022-12-18T14:56:58.596Z,48.13
2022-12-18T14:59:28.235Z,48.27
2022-12-18T15:02:03.353Z,48.13
2022-12-18T15:04:36.282Z,49.63
2022-12-18T15:07:12.289Z,48.00
2022-12-18T15:09:41.708Z,50.77
2022-12-18T15:12:26.819Z,49.80
2022-12-18T15:14:54.904Z,49.57
2022-12-18T15:17:26.100Z,49.87
2022-12-18T15:20:00.980Z,49.53
2022-12-18T15:22:31.183Z,52.30
2022-12-18T15:25:01.120Z,53.87
2022-12-18T15:27:33.396Z,52.77
2022-12-18T15:30:20.107Z,51.77
2022-12-18T15:32:48.762Z,51.80
2022-12-18T15:35:20.325Z,53.43
2022-12-18T15:37:48.516Z,54.87
2022-12-18T15:40:18.071Z,59.70
2022-12-18T15:43:08.350Z,59.00
2022-12-18T15:45:36.770Z,62.97
2022-12-18T15:48:13.398Z,65.67
2022-12-18T15:50:41.559Z,62.37
2022-12-18T15:53:11.105Z,62.67
2022-12-18T15:56:00.973Z,60.60
2022-12-18T15:58:30.819Z,65.70
2022-12-18T16:01:01.951Z,66.13
2022-12-18T16:03:30.212Z,70.37
2022-12-18T16:05:59.429Z,68.07
2022-12-18T16:08:28.377Z,68.67
2022-12-18T16:10:57.223Z,66.47
2022-12-18T16:13:25.861Z,66.50
2022-12-18T16:15:55.512Z,65.20
2022-12-18T16:18:23.723Z,59.73
2022-12-18T16:20:51.837Z,58.70
2022-12-18T16:23:19.821Z,56.33
2022-12-18T16:25:48.693Z,56.93
2022-12-18T16:28:16.837Z,56.40
2022-12-18T16:30:45.945Z,58.63
2022-12-18T16:33:15.445Z,57.37
2022-12-18T16:35:44.636Z,59.30
2022-12-18T16:38:12.641Z,55.10
2022-12-18T16:41:02.959Z,61.80
2022-12-18T16:43:31.055Z,58.37
2022-12-18T16:46:01.197Z,56.27
2022-12-18T16:48:30.652Z,53.03
2022-12-18T16:51:03.744Z,55.87
2022-12-18T16:53:32.272Z,55.70
2022-12-18T16:56:01.536Z,54.33
2022-12-18T16:58:29.689Z,53.23
2022-12-18T17:00:57.764Z,55.60
2022-12-18T17:03:25.955Z,55.60
2022-12-18T17:05:56.167Z,57.13
2022-12-18T17:08:24.343Z,56.53
2022-12-18T17:10:52.334Z,56.03
2022-12-18T17:13:25.569Z,56.30
2022-12-18T17:15:54.219Z,60.03
2022-12-18T17:18:23.236Z,56.30
2022-12-18T17:20:51.378Z,55.17
2022-12-18T17:23:20.956Z,54.10
2022-12-18T17:25:49.081Z,58.67
2022-12-18T17:28:17.352Z,57.70
2022-12-18T17:30:45.791Z,58.87
2022-12-18T17:33:14.157Z,57.57
2022-12-18T17:35:44.015Z,59.83
2022-12-18T17:38:13.039Z,58.50
2022-12-18T17:40:46.222Z,63.07
2022-12-18T17:43:14.969Z,57.83
2022-12-18T17:45:43.822Z,60.83
2022-12-18T17:48:12.483Z,62.87
2022-12-18T17:50:41.320Z,63.93
2022-12-18T17:53:09.645Z,62.17
2022-12-18T17:55:37.831Z,59.13
2022-12-18T17:58:07.421Z,59.13
2022-12-18T18:00:35.452Z,59.87
2022-12-18T18:03:03.753Z,58.27
2022-12-18T18:05:31.893Z,57.93
2022-12-18T18:08:02.952Z,59.37
2022-12-18T18:10:30.932Z,62.10
2022-12-18T18:13:17.697Z,58.13
2022-12-18T18:15:55.992Z,56.43
2022-12-18T18:18:24.216Z,58.17
2022-12-18T18:20:53.969Z,58.97
2022-12-18T18:23:22.266Z,59.73
2022-12-18T18:25:50.242Z,61.43
2022-12-18T18:28:19.477Z,59.70
2022-12-18T18:30:48.781Z,61.43
2022-12-18T18:33:18.249Z,60.13
2022-12-18T18:35:54.438Z,58.03
2022-12-18T18:38:23.186Z,59.53
2022-12-18T18:40:59.328Z,63.67
2022-12-18T18:43:27.352Z,59.23
2022-12-18T18:45:58.820Z,56.67
2022-12-18T18:48:27.464Z,54.57
2022-12-18T18:50:58.443Z,53.93
2022-12-18T18:53:26.859Z,54.53
2022-12-18T18:56:17.482Z,53.63
2022-12-18T18:58:42.966Z,55.00
2022-12-18T19:01:15.177Z,55.23
2022-12-18T19:03:44.853Z,53.37
2022-12-18T19:06:15.550Z,52.57
2022-12-18T19:08:44.368Z,51.10
2022-12-18T19:11:30.617Z,51.63
2022-12-18T19:14:06.018Z,50.73
2022-12-18T19:16:37.010Z,53.40
2022-12-18T19:19:05.744Z,53.13
2022-12-18T19:21:34.875Z,53.97
2022-12-18T19:24:03.517Z,53.90
2022-12-18T19:26:31.547Z,55.13
2022-12-18T19:29:03.338Z,58.70
2022-12-18T19:31:35.462Z,59.60
2022-12-18T19:34:07.806Z,60.07
2022-12-18T19:36:38.952Z,60.20
2022-12-18T19:39:10.695Z,58.37
2022-12-18T19:41:38.939Z,57.87
2022-12-18T19:44:08.677Z,54.93
2022-12-18T19:46:40.330Z,56.43
2022-12-18T19:49:18.036Z,55.87
2022-12-18T19:51:46.697Z,55.00
2022-12-18T19:54:16.987Z,54.67
2022-12-18T19:56:45.866Z,56.20
2022-12-18T19:59:14.113Z,56.37
2022-12-18T20:01:42.263Z,56.77
2022-12-18T20:04:10.465Z,56.90
2022-12-18T20:06:48.728Z,58.70
2022-12-18T20:09:17.580Z,57.97
2022-12-18T20:11:46.151Z,54.17
2022-12-18T20:14:22.734Z,55.33
2022-12-18T20:16:52.406Z,59.67
2022-12-18T20:19:21.664Z,58.77
2022-12-18T20:21:51.236Z,53.70
2022-12-18T20:24:19.275Z,56.23
2022-12-18T20:26:47.289Z,53.93
2022-12-18T20:29:15.320Z,53.37
2022-12-18T20:31:43.369Z,52.13
2022-12-18T20:34:11.569Z,54.30
2022-12-18T20:36:39.894Z,52.90
2022-12-18T20:39:13.323Z,54.87
2022-12-18T20:41:41.684Z,53.17
2022-12-18T20:44:23.020Z,54.20
2022-12-18T20:46:53.415Z,54.23
2022-12-18T20:49:21.532Z,59.63
2022-12-18T20:51:52.402Z,54.53
2022-12-18T20:54:22.113Z,54.17
2022-12-18T20:56:50.202Z,52.80
2022-12-18T20:59:19.858Z,51.70
2022-12-18T21:01:48.400Z,53.13
2022-12-18T21:04:18.533Z,52.93
2022-12-18T21:06:51.433Z,53.43
2022-12-18T21:09:22.731Z,53.83
2022-12-18T21:12:08.814Z,52.17
2022-12-18T21:14:40.027Z,52.30
2022-12-18T21:17:08.129Z,51.73
2022-12-18T21:19:36.208Z,54.20
2022-12-18T21:22:04.483Z,51.73
2022-12-18T21:24:34.037Z,52.87
2022-12-18T21:27:02.125Z,54.27
2022-12-18T21:29:30.306Z,56.83
2022-12-18T21:31:58.345Z,55.63
2022-12-18T21:34:28.804Z,53.37
2022-12-18T21:36:59.201Z,55.73
2022-12-18T21:39:28.811Z,53.43
2022-12-18T21:42:16.609Z,54.87
2022-12-18T21:44:45.626Z,53.87
2022-12-18T21:47:22.909Z,52.23
2022-12-18T21:49:52.855Z,51.47
2022-12-18T21:52:27.260Z,52.07
2022-12-18T21:55:03.268Z,53.30
2022-12-18T21:57:38.013Z,53.57
2022-12-18T22:00:07.596Z,53.90
2022-12-18T22:02:41.857Z,53.00
2022-12-18T22:05:10.667Z,53.63
2022-12-18T22:07:39.211Z,52.47
2022-12-18T22:10:08.168Z,52.37
2022-12-18T22:12:43.105Z,51.80
2022-12-18T22:15:18.634Z,51.13
2022-12-18T22:17:50.428Z,51.90
2022-12-18T22:20:20.082Z,51.17
2022-12-18T22:22:48.637Z,52.47
2022-12-18T22:25:16.695Z,55.50
2022-12-18T22:28:07.058Z,57.73
2022-12-18T22:30:34.076Z,57.33
2022-12-18T22:33:02.788Z,56.37
2022-12-18T22:35:30.812Z,59.43
2022-12-18T22:37:59.724Z,59.50
2022-12-18T22:40:28.601Z,59.80
2022-12-18T22:42:58.208Z,60.57
2022-12-18T22:45:26.796Z,59.20
2022-12-18T22:47:54.985Z,63.10
2022-12-18T22:50:23.096Z,60.13
2022-12-18T22:52:51.102Z,64.93
2022-12-18T22:55:19.110Z,63.27
2022-12-18T22:57:49.033Z,62.97
2022-12-18T23:00:23.790Z,59.80
2022-12-18T23:02:59.185Z,62.07
2022-12-18T23:05:27.668Z,61.57
2022-12-18T23:07:55.967Z,62.23
2022-12-18T23:10:24.092Z,62.37
2022-12-18T23:12:52.151Z,61.23
2022-12-18T23:15:27.207Z,61.30
2022-12-18T23:17:57.400Z,62.70
2022-12-18T23:20:25.441Z,63.43
2022-12-18T23:22:53.465Z,61.43
2022-12-18T23:25:21.654Z,64.70
2022-12-18T23:27:49.684Z,60.40
2022-12-18T23:30:17.857Z,62.27
2022-12-18T23:32:47.266Z,62.50
2022-12-18T23:35:15.805Z,61.30
2022-12-18T23:37:58.801Z,66.80
2022-12-18T23:40:28.033Z,64.27
2022-12-18T23:42:56.057Z,65.03
2022-12-18T23:45:24.132Z,65.97
2022-12-18T23:47:53.497Z,62.83
2022-12-18T23:50:24.528Z,65.77
2022-12-18T23:52:57.238Z,63.30
2022-12-18T23:55:33.478Z,60.10
2022-12-18T23:58:01.545Z,64.17
